Time;durP1;ratioP1;P1;durP2;ratioP2;P2;SDS_P1;SDS_P2;PMS_P1;PMS_P2;Temp;Humidity;BMP_temperature;BMP_pressure;BME280_temperature;BME280_humidity;BME280_pressure;Samples;Min_cycle;Max_cycle;Signal;HPM_P1;HPM_P2
2024/01/03 00:01:24;;;;;;;2.60;2.27;;;8.40;99.90;;;;;;5001981;28;20213;-54
2024/01/03 00:03:53;;;;;;;7.00;2.40;;;8.50;99.90;;;;;;4999047;28;20234;-57
2024/01/03 00:06:20;;;;;;;2.60;1.67;;;8.50;99.90;;;;;;4973830;28;20204;-51
2024/01/03 00:08:47;;;;;;;1.63;1.30;;;8.50;99.90;;;;;;5000358;28;20213;-55
2024/01/03 00:11:20;;;;;;;3.27;1.60;;;8.50;99.90;;;;;;4995360;28;20474;-57
2024/01/03 00:14:05;;;;;;;2.27;1.60;;;8.60;99.90;;;;;;4984899;28;20220;-58
2024/01/03 00:16:34;;;;;;;2.70;1.37;;;8.70;99.90;;;;;;4997546;28;20200;-51
2024/01/03 00:19:02;;;;;;;7.73;1.40;;;8.90;99.90;;;;;;4998059;28;20254;-54
2024/01/03 00:21:30;;;;;;;1.83;1.17;;;8.90;99.90;;;;;;5001783;28;20664;-55
2024/01/03 00:23:58;;;;;;;2.77;1.00;;;9.00;99.90;;;;;;4967181;28;20228;-56
2024/01/03 00:26:25;;;;;;;2.13;1.03;;;9.00;99.90;;;;;;4994007;28;20674;-55
2024/01/03 00:28:53;;;;;;;3.73;1.07;;;9.10;99.90;;;;;;4989015;28;20223;-56
2024/01/03 00:31:36;;;;;;;4.53;1.07;;;9.20;99.90;;;;;;4999157;28;20201;-51
2024/01/03 00:34:13;;;;;;;3.93;1.13;;;9.20;99.90;;;;;;4996289;28;20240;-48
2024/01/03 00:36:40;;;;;;;1.77;0.90;;;9.20;99.90;;;;;;4999011;28;20212;-54
2024/01/03 00:39:08;;;;;;;2.33;0.97;;;9.20;99.90;;;;;;4965365;28;20214;-53
2024/01/03 00:41:35;;;;;;;2.90;1.50;;;9.20;99.90;;;;;;4996783;28;20232;-48
2024/01/03 00:44:02;;;;;;;2.77;1.10;;;9.20;99.90;;;;;;4992025;28;20221;-53
2024/01/03 00:46:30;;;;;;;2.63;1.10;;;9.20;99.90;;;;;;5006293;28;20197;-47
2024/01/03 00:48:57;;;;;;;4.57;1.77;;;9.20;99.90;;;;;;4997259;28;20278;-56
2024/01/03 00:51:24;;;;;;;1.83;1.00;;;9.20;99.90;;;;;;4986660;28;20213;-58
2024/01/03 00:53:51;;;;;;;2.73;1.10;;;9.20;99.90;;;;;;4965433;28;20225;-52
2024/01/03 00:56:18;;;;;;;5.13;1.30;;;9.20;99.90;;;;;;5007789;28;20201;-57
2024/01/03 00:58:45;;;;;;;5.63;1.30;;;9.30;99.90;;;;;;4999290;28;20208;-49
2024/01/03 01:01:12;;;;;;;1.00;0.80;;;9.30;99.90;;;;;;4993197;28;20685;-54
2024/01/03 01:03:40;;;;;;;6.47;1.10;;;9.20;99.90;;;;;;5001273;28;20220;-53
2024/01/03 01:06:07;;;;;;;6.63;1.00;;;9.30;99.90;;;;;;4997783;28;20247;-52
2024/01/03 01:08:34;;;;;;;3.10;1.00;;;9.20;99.90;;;;;;4992452;28;20196;-50
2024/01/03 01:11:01;;;;;;;3.03;1.03;;;9.30;99.90;;;;;;4977382;28;20287;-49
2024/01/03 01:13:28;;;;;;;2.93;1.10;;;9.30;99.90;;;;;;5000129;28;20581;-56
2024/01/03 01:15:55;;;;;;;2.97;1.13;;;9.30;99.90;;;;;;4991348;28;20192;-46
2024/01/03 01:18:22;;;;;;;1.10;0.73;;;9.40;99.90;;;;;;5002718;28;20201;-54
2024/01/03 01:20:50;;;;;;;1.27;0.60;;;9.30;99.90;;;;;;4995987;28;20341;-51
2024/01/03 01:23:17;;;;;;;4.17;2.13;;;9.40;99.90;;;;;;4996934;28;20205;-56
2024/01/03 01:25:44;;;;;;;1.97;0.90;;;9.40;99.90;;;;;;4975335;28;21501;-51
2024/01/03 01:28:11;;;;;;;4.00;1.00;;;9.40;99.90;;;;;;4997639;28;20232;-56
2024/01/03 01:30:38;;;;;;;6.10;1.33;;;9.50;99.90;;;;;;4987458;28;20205;-46
2024/01/03 01:33:05;;;;;;;4.97;1.00;;;9.50;99.90;;;;;;4999599;28;20217;-52
2024/01/03 01:35:32;;;;;;;3.20;0.90;;;9.50;99.90;;;;;;4995600;28;20827;-53
2024/01/03 01:38:03;;;;;;;4.27;0.60;;;9.50;99.90;;;;;;5003645;28;20204;-51
2024/01/03 01:40:30;;;;;;;1.47;0.40;;;9.50;99.90;;;;;;4979123;28;20276;-55
2024/01/03 01:42:58;;;;;;;6.40;1.17;;;9.50;99.90;;;;;;4991674;28;20208;-47
2024/01/03 01:45:25;;;;;;;5.10;1.13;;;9.50;99.90;;;;;;5000094;28;20217;-54
2024/01/03 01:47:53;;;;;;;2.93;0.90;;;9.50;99.90;;;;;;4985673;28;20216;-52
2024/01/03 01:50:20;;;;;;;1.90;0.70;;;9.50;99.90;;;;;;4995431;28;20200;-55
2024/01/03 01:52:48;;;;;;;3.27;0.80;;;9.50;99.90;;;;;;5004068;28;20192;-48
2024/01/03 01:55:17;;;;;;;3.03;0.83;;;9.50;99.90;;;;;;4998824;28;20275;-54
2024/01/03 01:57:45;;;;;;;2.40;0.80;;;9.50;99.90;;;;;;4986713;28;23318;-49
2024/01/03 02:00:13;;;;;;;3.27;0.80;;;9.60;99.90;;;;;;5000572;28;20208;-53
2024/01/03 02:02:43;;;;;;;4.60;0.93;;;9.60;99.90;;;;;;4985317;28;20688;-51
2024/01/03 02:05:10;;;;;;;4.60;0.80;;;9.60;99.90;;;;;;5001547;28;20221;-47
2024/01/03 02:07:37;;;;;;;4.50;1.10;;;9.60;99.90;;;;;;4997777;28;20197;-48
2024/01/03 02:10:04;;;;;;;2.80;0.90;;;9.60;99.90;;;;;;5004289;28;20280;-46
2024/01/03 02:12:33;;;;;;;5.67;1.10;;;9.60;99.90;;;;;;4970871;28;20972;-51
2024/01/03 02:14:59;;;;;;;2.67;0.70;;;9.60;99.90;;;;;;4992465;28;20216;-52
2024/01/03 02:17:28;;;;;;;5.43;0.90;;;9.50;99.90;;;;;;4983538;28;20227;-55
2024/01/03 02:20:00;;;;;;;1.70;0.80;;;9.50;99.90;;;;;;5003736;28;20746;-51
2024/01/03 02:22:28;;;;;;;2.57;0.70;;;9.50;99.90;;;;;;4999546;28;20196;-53
2024/01/03 02:24:55;;;;;;;2.17;0.57;;;9.50;99.90;;;;;;5003215;28;20229;-49
2024/01/03 02:27:22;;;;;;;3.03;0.83;;;9.40;99.90;;;;;;4987264;28;20296;-56
2024/01/03 02:29:49;;;;;;;4.40;0.67;;;9.40;99.90;;;;;;4980153;28;20867;-53
2024/01/03 02:32:16;;;;;;;2.77;0.77;;;9.30;99.90;;;;;;4993189;28;20579;-56
2024/01/03 02:34:43;;;;;;;3.07;0.83;;;9.30;99.90;;;;;;4999031;28;20220;-49
2024/01/03 02:37:11;;;;;;;3.90;1.03;;;9.30;99.90;;;;;;5002619;28;20720;-49
2024/01/03 02:39:39;;;;;;;3.33;0.80;;;9.30;99.90;;;;;;4998827;28;20196;-52
2024/01/03 02:42:06;;;;;;;3.97;0.90;;;9.30;99.90;;;;;;4998968;28;20224;-53
2024/01/03 02:44:33;;;;;;;2.43;0.63;;;9.20;99.90;;;;;;4961209;28;20306;-52
2024/01/03 02:47:00;;;;;;;1.70;0.80;;;9.20;99.90;;;;;;5000404;28;20200;-46
2024/01/03 02:49:26;;;;;;;1.57;0.60;;;9.20;99.90;;;;;;4987270;28;20652;-56
2024/01/03 02:51:53;;;;;;;3.03;1.00;;;9.20;99.90;;;;;;5003120;28;20263;-46
2024/01/03 02:54:20;;;;;;;3.00;0.70;;;9.20;99.90;;;;;;5005450;28;20243;-56
2024/01/03 02:56:48;;;;;;;3.53;0.67;;;9.10;99.90;;;;;;4996118;28;20235;-50
2024/01/03 02:59:15;;;;;;;3.50;0.87;;;9.10;99.90;;;;;;4973366;28;20215;-57
2024/01/03 03:01:42;;;;;;;4.33;0.77;;;9.10;99.90;;;;;;4994990;28;20268;-46
2024/01/03 03:04:09;;;;;;;4.30;0.70;;;9.10;99.90;;;;;;5002569;28;20276;-50
2024/01/03 03:06:35;;;;;;;2.67;0.63;;;9.10;99.90;;;;;;4984665;28;20209;-48
2024/01/03 03:09:02;;;;;;;2.37;0.47;;;9.10;99.90;;;;;;5002196;28;20254;-47
2024/01/03 03:11:29;;;;;;;2.27;0.60;;;9.10;99.90;;;;;;4987332;28;20701;-53
2024/01/03 03:13:57;;;;;;;2.80;0.40;;;9.00;99.90;;;;;;4973160;28;20255;-48
2024/01/03 03:16:25;;;;;;;1.37;0.60;;;9.00;99.90;;;;;;4993502;28;20279;-55
2024/01/03 03:18:52;;;;;;;1.23;0.40;;;9.00;99.90;;;;;;5004585;28;20215;-48
2024/01/03 03:21:19;;;;;;;1.20;0.50;;;9.00;99.90;;;;;;4994740;28;20281;-55
2024/01/03 03:23:46;;;;;;;1.80;0.50;;;8.90;99.90;;;;;;4997726;28;20232;-51
2024/01/03 03:26:12;;;;;;;3.80;0.40;;;8.90;99.90;;;;;;4994808;28;20213;-54
2024/01/03 03:28:39;;;;;;;1.37;0.70;;;8.90;99.90;;;;;;4969606;28;20212;-48
2024/01/03 03:31:07;;;;;;;2.37;0.60;;;8.80;99.90;;;;;;5002034;28;20661;-50
2024/01/03 03:33:34;;;;;;;2.93;0.43;;;8.80;99.90;;;;;;4993641;28;20262;-48
2024/01/03 03:36:01;;;;;;;0.47;0.40;;;8.80;99.90;;;;;;4990294;28;20201;-54
2024/01/03 03:38:28;;;;;;;2.47;0.57;;;8.80;99.90;;;;;;4993836;28;20259;-55
2024/01/03 03:40:54;;;;;;;1.50;0.43;;;8.80;99.90;;;;;;4995743;28;20592;-51
2024/01/03 03:43:21;;;;;;;2.03;0.40;;;8.70;99.90;;;;;;4989412;28;20204;-46
2024/01/03 03:45:48;;;;;;;0.27;0.13;;;8.70;99.90;;;;;;4973346;28;20223;-55
2024/01/03 03:48:16;;;;;;;1.53;0.33;;;8.70;99.90;;;;;;5001339;28;20279;-54
2024/01/03 03:50:43;;;;;;;1.80;0.30;;;8.70;99.90;;;;;;4997695;28;20197;-53
2024/01/03 03:53:10;;;;;;;1.80;0.40;;;8.70;99.90;;;;;;4993917;28;20219;-51
2024/01/03 03:55:42;;;;;;;0.43;0.40;;;8.70;99.90;;;;;;4997861;28;20193;-54
2024/01/03 03:58:09;;;;;;;4.83;0.33;;;8.60;99.90;;;;;;4999907;28;20184;-48
2024/01/03 04:00:35;;;;;;;1.00;0.40;;;8.60;99.90;;;;;;4975033;28;20270;-48
2024/01/03 04:03:06;;;;;;;0.77;0.30;;;8.50;99.90;;;;;;4999445;28;20338;-50
2024/01/03 04:05:35;;;;;;;1.73;0.20;;;8.50;99.90;;;;;;4999167;28;20221;-51
2024/01/03 04:08:02;;;;;;;3.63;0.93;;;8.50;99.90;;;;;;4979701;28;20940;-53
2024/01/03 04:10:28;;;;;;;1.30;0.60;;;8.50;99.90;;;;;;5000947;28;20203;-51
2024/01/03 04:12:56;;;;;;;0.57;0.30;;;8.50;99.90;;;;;;4998548;28;20807;-54
2024/01/03 04:15:23;;;;;;;0.83;0.40;;;8.50;99.90;;;;;;4974167;28;20223;-48
2024/01/03 04:17:50;;;;;;;1.70;0.40;;;8.50;99.90;;;;;;5002370;28;20232;-54
2024/01/03 04:20:17;;;;;;;1.70;0.43;;;8.40;99.90;;;;;;4995101;28;20201;-50
2024/01/03 04:22:46;;;;;;;1.43;0.40;;;8.40;99.90;;;;;;4983530;28;20296;-55
2024/01/03 04:25:13;;;;;;;2.83;0.43;;;8.40;99.90;;;;;;5010621;28;20247;-51
2024/01/03 04:27:40;;;;;;;0.87;0.57;;;8.40;99.90;;;;;;5001036;28;20268;-53
2024/01/03 04:30:07;;;;;;;3.00;0.40;;;8.40;99.90;;;;;;4989269;28;20196;-52
2024/01/03 04:32:34;;;;;;;0.40;0.30;;;8.40;99.90;;;;;;4965354;28;20781;-52
2024/01/03 04:35:01;;;;;;;1.37;0.50;;;8.40;99.90;;;;;;4991843;28;20231;-53
2024/01/03 04:37:28;;;;;;;1.43;0.40;;;8.40;99.90;;;;;;4996956;28;20211;-51
2024/01/03 04:39:56;;;;;;;1.43;0.30;;;8.40;99.90;;;;;;4986220;28;20204;-51
2024/01/03 04:42:23;;;;;;;2.00;0.50;;;8.40;99.90;;;;;;5002495;28;20581;-50
2024/01/03 04:44:50;;;;;;;1.60;0.30;;;8.40;99.90;;;;;;5000199;28;20220;-53
2024/01/03 04:47:17;;;;;;;1.23;0.20;;;8.40;99.90;;;;;;4969376;28;20266;-55
2024/01/03 04:49:44;;;;;;;0.50;0.47;;;8.40;99.90;;;;;;4990991;28;20220;-55
2024/01/03 04:52:12;;;;;;;2.40;0.60;;;8.40;99.90;;;;;;4995697;28;20330;-46
2024/01/03 04:54:39;;;;;;;0.30;0.20;;;8.40;99.90;;;;;;4986060;28;20303;-54
2024/01/03 04:57:08;;;;;;;0.73;0.20;;;8.40;99.90;;;;;;4994725;28;20196;-51
2024/01/03 04:59:35;;;;;;;0.73;0.27;;;8.30;99.90;;;;;;5001702;28;20205;-47
2024/01/03 05:02:01;;;;;;;2.67;0.50;;;8.30;99.90;;;;;;4992290;28;20185;-49
2024/01/03 05:04:28;;;;;;;2.30;0.33;;;8.40;99.90;;;;;;4969007;28;20271;-46
2024/01/03 05:06:55;;;;;;;0.20;0.17;;;8.40;99.90;;;;;;4997744;28;20247;-48
2024/01/03 05:09:23;;;;;;;1.53;0.27;;;8.40;99.90;;;;;;4978972;28;20205;-54
2024/01/03 05:11:51;;;;;;;1.13;0.30;;;8.40;99.90;;;;;;5002667;28;20231;-52
2024/01/03 05:14:19;;;;;;;0.40;0.20;;;8.40;99.90;;;;;;4992092;28;20217;-55
2024/01/03 05:16:46;;;;;;;2.20;0.20;;;8.40;99.90;;;;;;4999452;28;20205;-51
2024/01/03 05:19:13;;;;;;;0.60;0.30;;;8.40;99.90;;;;;;4969743;28;20211;-53
2024/01/03 05:21:40;;;;;;;0.50;0.20;;;8.40;99.90;;;;;;4999816;28;20243;-49
2024/01/03 05:24:07;;;;;;;1.67;0.20;;;8.40;99.90;;;;;;5002072;28;20228;-53
2024/01/03 05:26:34;;;;;;;0.53;0.10;;;8.40;99.90;;;;;;4985687;28;20220;-49
2024/01/03 05:29:00;;;;;;;0.70;0.20;;;8.40;99.90;;;;;;4996764;28;20861;-53
2024/01/03 05:31:28;;;;;;;1.57;0.20;;;8.40;99.90;;;;;;4983329;28;20254;-54
2024/01/03 05:33:55;;;;;;;1.37;0.50;;;8.40;99.90;;;;;;4999371;28;20275;-48
2024/01/03 05:36:22;;;;;;;0.10;0.10;;;8.40;99.90;;;;;;4970281;28;20613;-55
2024/01/03 05:38:49;;;;;;;0.20;0.17;;;8.40;99.90;;;;;;4991653;28;20200;-48
2024/01/03 05:41:16;;;;;;;0.80;0.80;;;8.40;99.90;;;;;;4991977;28;20303;-52
2024/01/03 05:43:43;;;;;;;0.87;0.27;;;8.50;99.90;;;;;;4984872;28;21013;-50
2024/01/03 05:46:10;;;;;;;0.93;0.13;;;8.40;99.90;;;;;;4998493;28;20216;-57
2024/01/03 05:48:38;;;;;;;0.50;0.10;;;8.50;99.90;;;;;;4993460;28;20800;-48
2024/01/03 05:51:05;;;;;;;0.13;0.10;;;8.40;99.90;;;;;;4971467;28;20624;-55
2024/01/03 05:53:32;;;;;;;0.30;0.20;;;8.40;99.90;;;;;;4997003;28;20204;-47
2024/01/03 05:55:59;;;;;;;1.60;0.20;;;8.50;99.90;;;;;;5003543;28;20193;-49
2024/01/03 05:58:26;;;;;;;0.50;0.20;;;8.50;99.90;;;;;;4984870;28;20204;-50
2024/01/03 06:00:53;;;;;;;0.33;0.07;;;8.50;99.90;;;;;;4997797;28;20255;-47
2024/01/03 06:03:20;;;;;;;0.40;0.30;;;8.50;99.90;;;;;;4996007;28;20197;-54
2024/01/03 06:05:48;;;;;;;0.20;0.20;;;8.50;99.90;;;;;;4998416;28;20216;-47
2024/01/03 06:08:15;;;;;;;0.63;0.20;;;8.50;99.90;;;;;;4978537;28;20209;-53
2024/01/03 06:10:42;;;;;;;1.00;0.17;;;8.50;99.90;;;;;;4999717;28;20695;-53
2024/01/03 06:13:11;;;;;;;0.43;0.20;;;8.50;99.90;;;;;;4995130;28;20193;-56
2024/01/03 06:15:37;;;;;;;0.60;0.27;;;8.60;99.90;;;;;;4991510;28;20953;-49
2024/01/03 06:18:05;;;;;;;0.97;0.20;;;8.60;99.90;;;;;;4997271;28;20208;-51
2024/01/03 06:20:32;;;;;;;0.37;0.30;;;8.60;99.90;;;;;;4998056;28;20196;-53
2024/01/03 06:23:00;;;;;;;0.40;0.30;;;8.60;99.90;;;;;;4975443;28;20204;-50
2024/01/03 06:25:26;;;;;;;0.10;0.10;;;8.60;99.90;;;;;;4992227;28;20859;-50
2024/01/03 06:27:54;;;;;;;0.10;0.10;;;8.60;99.90;;;;;;5001545;28;20247;-47
2024/01/03 06:30:21;;;;;;;0.07;0.07;;;8.60;99.90;;;;;;4984871;28;20205;-53
2024/01/03 06:32:47;;;;;;;0.33;0.20;;;8.60;99.90;;;;;;5003953;28;20200;-51
2024/01/03 06:35:15;;;;;;;0.50;0.30;;;8.60;99.90;;;;;;4995547;28;20220;-51
2024/01/03 06:37:42;;;;;;;0.60;0.10;;;8.60;99.90;;;;;;4972508;28;20213;-51
2024/01/03 06:40:11;;;;;;;0.20;0.10;;;8.50;99.90;;;;;;4996099;28;20239;-52
2024/01/03 06:42:38;;;;;;;0.40;0.10;;;8.50;99.90;;;;;;4999663;28;20945;-48
2024/01/03 06:45:06;;;;;;;0.73;0.30;;;8.60;99.90;;;;;;4993340;28;20319;-53
2024/01/03 06:47:33;;;;;;;0.77;0.37;;;8.60;99.90;;;;;;4992491;28;20197;-51
2024/01/03 06:49:59;;;;;;;0.97;0.33;;;8.50;99.90;;;;;;4995929;28;20242;-46
2024/01/03 06:52:26;;;;;;;0.67;0.20;;;8.60;99.90;;;;;;4964954;28;20298;-54
2024/01/03 06:54:55;;;;;;;0.20;0.13;;;8.60;99.90;;;;;;4993783;28;20222;-47
2024/01/03 06:57:23;;;;;;;1.80;0.20;;;8.60;99.90;;;;;;4999775;28;20193;-55
2024/01/03 06:59:50;;;;;;;0.40;0.33;;;8.60;99.90;;;;;;4992307;28;20196;-47
2024/01/03 07:02:17;;;;;;;0.60;0.23;;;8.60;99.90;;;;;;5001058;28;20201;-55
2024/01/03 07:04:43;;;;;;;0.30;0.20;;;8.60;99.90;;;;;;4997455;28;20232;-47
2024/01/03 07:07:12;;;;;;;0.10;0.10;;;8.60;99.90;;;;;;4997118;28;20217;-56
2024/01/03 07:09:39;;;;;;;0.70;0.70;;;8.60;99.90;;;;;;4971064;28;20193;-50
2024/01/03 07:12:06;;;;;;;0.50;0.30;;;8.60;99.90;;;;;;5008546;28;20205;-53
2024/01/03 07:14:34;;;;;;;0.10;0.10;;;8.50;99.90;;;;;;4990730;28;20228;-55
2024/01/03 07:17:01;;;;;;;0.13;0.10;;;8.60;99.90;;;;;;5000290;28;20669;-51
2024/01/03 07:19:28;;;;;;;0.10;0.10;;;8.50;99.90;;;;;;4990182;28;20197;-50
2024/01/03 07:21:55;;;;;;;1.50;0.30;;;8.50;99.90;;;;;;5000346;28;20752;-53
2024/01/03 07:24:23;;;;;;;0.27;0.17;;;8.60;99.90;;;;;;4973940;28;20593;-55
2024/01/03 07:26:50;;;;;;;0.23;0.13;;;8.60;99.90;;;;;;5001965;28;20213;-53
2024/01/03 07:29:16;;;;;;;1.10;0.00;;;8.60;99.90;;;;;;4995634;28;20192;-58
2024/01/03 07:31:45;;;;;;;0.10;0.10;;;8.60;99.90;;;;;;4999412;28;20216;-54
2024/01/03 07:34:11;;;;;;;0.47;0.10;;;8.60;99.90;;;;;;4995824;28;20217;-57
2024/01/03 07:36:39;;;;;;;0.57;0.00;;;8.60;99.90;;;;;;5013346;28;20255;-50
2024/01/03 07:39:07;;;;;;;1.10;0.10;;;8.60;99.90;;;;;;4998665;28;20207;-54
2024/01/03 07:41:35;;;;;;;0.50;0.40;;;8.60;99.90;;;;;;4972769;28;20275;-49
2024/01/03 07:44:02;;;;;;;0.27;0.00;;;8.60;99.90;;;;;;5002759;28;20238;-50
2024/01/03 07:46:29;;;;;;;0.20;0.20;;;8.60;99.90;;;;;;4985023;28;21010;-55
2024/01/03 07:48:58;;;;;;;0.83;0.10;;;8.60;99.90;;;;;;4993465;28;20197;-49
2024/01/03 07:51:25;;;;;;;0.93;0.20;;;8.70;99.90;;;;;;4987756;28;20204;-54
2024/01/03 07:53:52;;;;;;;0.10;0.10;;;8.70;99.90;;;;;;4991942;28;20944;-50
2024/01/03 07:56:20;;;;;;;0.73;0.10;;;8.70;99.90;;;;;;4978098;28;20196;-57
2024/01/03 07:58:46;;;;;;;0.10;0.10;;;8.60;99.90;;;;;;5002368;28;20311;-49
2024/01/03 08:01:14;;;;;;;1.50;0.40;;;8.60;99.90;;;;;;4984676;28;20770;-50
2024/01/03 08:03:41;;;;;;;0.80;0.50;;;8.60;99.90;;;;;;4977548;28;20299;-50
2024/01/03 08:06:11;;;;;;;1.43;0.60;;;8.60;99.90;;;;;;4994399;28;20295;-52
2024/01/03 08:08:38;;;;;;;4.00;0.80;;;8.50;99.90;;;;;;4991719;28;20208;-51
2024/01/03 08:11:06;;;;;;;4.90;0.80;;;8.50;99.90;;;;;;5005812;28;20208;-53
2024/01/03 08:13:34;;;;;;;7.50;1.43;;;8.50;99.90;;;;;;4973141;28;20215;-54
2024/01/03 08:16:01;;;;;;;2.00;1.00;;;8.50;99.90;;;;;;4990859;28;20209;-52
2024/01/03 08:18:28;;;;;;;5.27;1.67;;;8.50;99.90;;;;;;4978612;28;20296;-53
2024/01/03 08:20:57;;;;;;;5.50;1.50;;;8.50;99.90;;;;;;5003605;28;20201;-55
2024/01/03 08:23:27;;;;;;;2.47;1.10;;;8.50;99.90;;;;;;4999257;28;20197;-54
2024/01/03 08:25:54;;;;;;;1.80;0.80;;;8.50;99.90;;;;;;4988191;28;20539;-51
2024/01/03 08:28:21;;;;;;;6.87;1.73;;;8.50;99.90;;;;;;4976185;28;20590;-50
2024/01/03 08:30:49;;;;;;;6.10;1.27;;;8.50;99.90;;;;;;4993023;28;20215;-52
2024/01/03 08:33:16;;;;;;;2.27;1.00;;;8.50;99.90;;;;;;4982162;28;20207;-50
2024/01/03 08:35:43;;;;;;;5.73;1.20;;;8.50;99.90;;;;;;4989094;28;20284;-49
2024/01/03 08:38:11;;;;;;;7.57;1.30;;;8.60;99.90;;;;;;4989780;28;20204;-49
2024/01/03 08:40:39;;;;;;;8.10;1.87;;;8.60;99.90;;;;;;4989192;28;20657;-48
2024/01/03 08:43:07;;;;;;;9.13;1.80;;;8.60;99.90;;;;;;4999529;28;20208;-48
2024/01/03 08:45:37;;;;;;;5.97;1.33;;;8.70;99.90;;;;;;4965724;28;20201;-48
2024/01/03 08:48:06;;;;;;;4.87;1.40;;;8.70;99.90;;;;;;4989940;28;20212;-50
2024/01/03 08:50:33;;;;;;;5.27;1.17;;;8.80;99.90;;;;;;5000604;28;20295;-51
2024/01/03 08:53:00;;;;;;;4.07;1.00;;;8.80;99.90;;;;;;4984126;28;20265;-52
2024/01/03 08:55:28;;;;;;;6.03;1.10;;;8.90;99.90;;;;;;5006479;28;20232;-52
2024/01/03 08:57:58;;;;;;;2.63;0.90;;;8.90;99.90;;;;;;4970489;28;20692;-51
2024/01/03 09:00:25;;;;;;;6.17;1.00;;;8.90;99.90;;;;;;4976539;28;20207;-52
2024/01/03 09:02:57;;;;;;;2.20;1.17;;;8.90;99.90;;;;;;4992822;28;21344;-53
2024/01/03 09:05:25;;;;;;;5.50;1.40;;;9.00;99.90;;;;;;5002987;28;20235;-52
2024/01/03 09:07:52;;;;;;;4.60;1.20;;;9.00;99.90;;;;;;4999133;28;20216;-52
2024/01/03 09:10:20;;;;;;;10.50;1.10;;;9.00;99.90;;;;;;4992071;28;20283;-50
2024/01/03 09:12:48;;;;;;;3.70;1.10;;;9.00;99.90;;;;;;4976408;28;20281;-52
2024/01/03 09:15:17;;;;;;;4.20;1.00;;;9.10;99.90;;;;;;5004555;28;20216;-53
2024/01/03 09:17:44;;;;;;;3.73;1.30;;;9.10;99.90;;;;;;4977284;28;20279;-47
2024/01/03 09:20:13;;;;;;;6.73;2.10;;;9.10;99.90;;;;;;4996463;28;20263;-52
2024/01/03 09:22:40;;;;;;;6.80;1.07;;;9.10;99.90;;;;;;5000159;28;20228;-51
2024/01/03 09:25:09;;;;;;;5.93;1.60;;;9.10;99.90;;;;;;5002294;28;20212;-54
2024/01/03 09:27:36;;;;;;;3.90;1.13;;;9.10;99.90;;;;;;4986299;28;20214;-52
2024/01/03 09:30:06;;;;;;;4.80;1.23;;;9.10;99.90;;;;;;4997322;28;20945;-52
2024/01/03 09:32:35;;;;;;;8.80;1.60;;;9.10;99.90;;;;;;4986129;28;20221;-51
2024/01/03 09:35:03;;;;;;;5.07;1.23;;;9.10;99.90;;;;;;4984989;28;20238;-54
2024/01/03 09:37:30;;;;;;;6.47;1.20;;;9.10;99.90;;;;;;4994442;28;20681;-53
2024/01/03 09:39:59;;;;;;;3.17;1.10;;;9.10;99.90;;;;;;4992864;28;20496;-50
2024/01/03 09:42:27;;;;;;;4.43;1.10;;;9.10;99.90;;;;;;4997607;28;20566;-53
2024/01/03 09:44:55;;;;;;;4.57;1.10;;;9.10;99.90;;;;;;4980597;28;20381;-54
2024/01/03 09:47:22;;;;;;;5.20;2.03;;;9.10;99.90;;;;;;4978806;28;20213;-51
2024/01/03 09:49:52;;;;;;;2.63;0.60;;;9.20;99.90;;;;;;4995311;28;20316;-53
2024/01/03 09:52:20;;;;;;;5.30;1.10;;;9.20;99.90;;;;;;5000556;28;20228;-50
2024/01/03 09:54:48;;;;;;;2.47;1.30;;;9.30;99.90;;;;;;4982904;28;21468;-54
2024/01/03 09:57:18;;;;;;;3.20;1.00;;;9.30;99.90;;;;;;4997147;28;20545;-54
2024/01/03 09:59:54;;;;;;;4.73;1.00;;;9.30;99.90;;;;;;4996639;28;20205;-51
2024/01/03 10:02:27;;;;;;;3.13;0.80;;;9.40;99.90;;;;;;4995081;28;20207;-55
2024/01/03 10:04:56;;;;;;;3.43;1.03;;;9.40;99.90;;;;;;4986796;28;21051;-55
2024/01/03 10:07:32;;;;;;;3.80;1.13;;;9.50;99.90;;;;;;4996411;28;20216;-51
2024/01/03 10:10:00;;;;;;;1.60;0.90;;;9.50;99.90;;;;;;4995339;28;20297;-54
2024/01/03 10:12:32;;;;;;;4.67;1.10;;;9.50;99.90;;;;;;4991895;28;20231;-50
2024/01/03 10:15:14;;;;;;;6.73;1.53;;;9.50;99.90;;;;;;4998422;28;20303;-50
2024/01/03 10:17:42;;;;;;;4.70;0.93;;;9.50;99.90;;;;;;4992855;28;20207;-50
2024/01/03 10:20:24;;;;;;;4.87;0.80;;;9.50;99.90;;;;;;4970732;28;20212;-52
2024/01/03 10:23:04;;;;;;;3.97;0.80;;;9.60;99.90;;;;;;4984305;28;20204;-52
2024/01/03 10:25:31;;;;;;;2.67;1.20;;;9.50;99.90;;;;;;4990605;28;20214;-50
2024/01/03 10:28:01;;;;;;;4.03;0.90;;;9.60;99.90;;;;;;4981636;28;20210;-48
2024/01/03 10:30:28;;;;;;;3.87;0.83;;;9.60;99.90;;;;;;4990940;28;20388;-50
2024/01/03 10:32:59;;;;;;;4.90;1.17;;;9.60;99.90;;;;;;4993969;28;20224;-50
2024/01/03 10:35:32;;;;;;;5.77;1.20;;;9.60;99.90;;;;;;4952600;28;20862;-47
2024/01/03 10:38:00;;;;;;;3.70;1.30;;;9.60;99.90;;;;;;4975866;28;20292;-54
2024/01/03 10:40:28;;;;;;;4.10;0.80;;;9.60;99.90;;;;;;4999623;28;20209;-51
2024/01/03 10:42:56;;;;;;;5.60;1.30;;;9.70;99.90;;;;;;4989623;28;20208;-47
2024/01/03 10:45:23;;;;;;;4.77;1.20;;;9.70;99.90;;;;;;4988362;28;20256;-52
2024/01/03 10:47:50;;;;;;;3.80;1.00;;;9.70;99.90;;;;;;4987936;28;20229;-51
2024/01/03 10:50:17;;;;;;;3.80;1.13;;;9.70;99.90;;;;;;4969776;28;20955;-51
2024/01/03 10:52:46;;;;;;;3.33;0.97;;;9.70;99.90;;;;;;4987937;28;21923;-51
2024/01/03 10:55:19;;;;;;;3.87;0.77;;;9.70;99.90;;;;;;5006651;28;20235;-50
2024/01/03 10:57:57;;;;;;;6.60;1.40;;;9.70;99.90;;;;;;4991742;28;20230;-56
2024/01/03 11:00:41;;;;;;;5.00;1.03;;;9.70;99.90;;;;;;4988709;28;20283;-48
2024/01/03 11:03:19;;;;;;;5.80;1.10;;;9.70;99.90;;;;;;5006707;28;20215;-51
2024/01/03 11:05:57;;;;;;;6.70;1.47;;;9.70;99.90;;;;;;4960917;28;20204;-54
2024/01/03 11:08:34;;;;;;;3.40;0.93;;;9.70;99.90;;;;;;4993977;28;20228;-53
2024/01/03 11:11:01;;;;;;;5.27;1.50;;;9.70;99.90;;;;;;5007384;28;20269;-51
2024/01/03 11:13:30;;;;;;;4.07;1.27;;;9.70;99.90;;;;;;4987903;28;20201;-49
2024/01/03 11:15:58;;;;;;;6.97;1.30;;;9.70;99.90;;;;;;4990705;28;20209;-47
2024/01/03 11:18:51;;;;;;;2.77;0.70;;;9.70;99.90;;;;;;5001097;28;20193;-48
2024/01/03 11:21:43;;;;;;;4.40;0.90;;;9.70;99.90;;;;;;4975983;28;20696;-47
2024/01/03 11:24:56;;;;;;;4.30;1.23;;;9.80;99.90;;;;;;4987363;28;20676;-50
2024/01/03 11:27:25;;;;;;;5.17;0.80;;;9.80;99.90;;;;;;5002874;28;20232;-52
2024/01/03 11:29:55;;;;;;;4.20;1.00;;;9.80;99.90;;;;;;4964353;28;20618;-49
2024/01/03 11:32:36;;;;;;;1.90;0.50;;;9.80;99.90;;;;;;4988917;28;20596;-53
2024/01/03 11:35:05;;;;;;;5.07;0.90;;;9.80;99.90;;;;;;4990537;28;20247;-54
2024/01/03 11:37:37;;;;;;;5.23;1.57;;;9.80;99.90;;;;;;4974292;28;20204;-51
2024/01/03 11:40:06;;;;;;;3.77;0.77;;;9.80;99.90;;;;;;4991098;28;20204;-52
2024/01/03 11:42:37;;;;;;;2.57;0.67;;;9.80;99.90;;;;;;5000746;28;20205;-54
2024/01/03 11:45:09;;;;;;;3.50;0.83;;;9.70;99.90;;;;;;4971185;28;21135;-51
2024/01/03 11:47:37;;;;;;;2.83;0.80;;;9.70;99.90;;;;;;4998726;28;20212;-53
2024/01/03 11:50:05;;;;;;;2.67;0.60;;;9.70;99.90;;;;;;4985037;28;20223;-52
2024/01/03 11:52:36;;;;;;;0.90;0.50;;;9.80;99.90;;;;;;4975676;28;20201;-52
2024/01/03 11:55:11;;;;;;;3.03;0.70;;;9.80;99.90;;;;;;4993228;28;20224;-53
2024/01/03 11:57:42;;;;;;;2.30;0.63;;;9.80;99.90;;;;;;4996203;28;20739;-50
2024/01/03 12:00:11;;;;;;;2.33;1.23;;;9.80;99.90;;;;;;4964567;28;20210;-48
2024/01/03 12:02:38;;;;;;;3.20;0.50;;;9.80;99.90;;;;;;4992152;28;20209;-55
2024/01/03 12:05:06;;;;;;;1.93;0.80;;;9.80;99.90;;;;;;5000072;28;21051;-53
2024/01/03 12:07:36;;;;;;;1.17;0.80;;;9.80;99.90;;;;;;4964186;28;20216;-54
2024/01/03 12:10:05;;;;;;;3.53;0.90;;;9.70;99.90;;;;;;4985866;28;20200;-53
2024/01/03 12:12:32;;;;;;;1.83;0.57;;;9.70;99.90;;;;;;4989507;28;20216;-50
2024/01/03 12:15:00;;;;;;;2.03;0.70;;;9.70;99.90;;;;;;4982528;28;20239;-52
2024/01/03 12:17:28;;;;;;;3.83;1.10;;;9.70;99.90;;;;;;4989334;28;20255;-54
2024/01/03 12:20:06;;;;;;;5.63;0.87;;;9.70;99.90;;;;;;4996390;28;20259;-50
2024/01/03 12:22:35;;;;;;;2.00;0.53;;;9.70;99.90;;;;;;4973344;28;20216;-54
2024/01/03 12:25:02;;;;;;;5.60;1.00;;;9.70;99.90;;;;;;4988795;28;20231;-52
2024/01/03 12:27:31;;;;;;;5.70;1.40;;;9.70;99.90;;;;;;4977319;28;21046;-53
2024/01/03 12:30:14;;;;;;;6.23;1.10;;;9.70;99.90;;;;;;4987840;28;20196;-54
2024/01/03 12:32:41;;;;;;;2.33;0.90;;;9.70;99.90;;;;;;4979728;28;20203;-53
2024/01/03 12:35:09;;;;;;;3.67;1.00;;;9.70;99.90;;;;;;5004152;28;20240;-51
2024/01/03 12:37:35;;;;;;;7.70;1.00;;;9.70;99.90;;;;;;4968962;28;20220;-51
2024/01/03 12:40:02;;;;;;;4.87;0.83;;;9.60;99.90;;;;;;4982923;28;20213;-54
2024/01/03 12:42:29;;;;;;;2.83;1.53;;;9.60;99.90;;;;;;4983269;28;20224;-50
2024/01/03 12:44:56;;;;;;;3.80;0.90;;;9.50;99.90;;;;;;4988126;28;20712;-54
2024/01/03 12:47:24;;;;;;;4.63;1.13;;;9.50;99.90;;;;;;4982448;28;20270;-51
2024/01/03 12:49:53;;;;;;;4.40;0.77;;;9.50;99.90;;;;;;5003068;28;20208;-53
2024/01/03 12:52:27;;;;;;;1.37;0.60;;;9.50;99.90;;;;;;4979282;28;20200;-52
2024/01/03 12:54:54;;;;;;;4.60;0.87;;;9.40;99.90;;;;;;4996513;28;20235;-52
2024/01/03 12:57:21;;;;;;;5.03;0.80;;;9.40;99.90;;;;;;4991221;28;20660;-54
2024/01/03 12:59:48;;;;;;;2.97;0.63;;;9.30;99.90;;;;;;4998045;28;20266;-52
2024/01/03 13:02:17;;;;;;;3.93;0.83;;;9.30;99.90;;;;;;4995441;28;20199;-52
2024/01/03 13:04:45;;;;;;;3.17;0.70;;;9.20;99.90;;;;;;5001107;28;20231;-53